sensor_id;sensor_type;location;lat;lon;timestamp;temperature;humidity
1179;DHT22;578;48.408;10.004;2022-12-08T00:01:26;1.80;99.90
1179;DHT22;578;48.408;10.004;2022-12-08T00:03:53;1.80;99.90
1179;DHT22;578;48.408;10.004;2022-12-08T00:06:23;1.80;99.90
1179;DHT22;578;48.408;10.004;2022-12-08T00:09:13;1.70;99.90
1179;DHT22;578;48.408;10.004;2022-12-08T00:11:55;1.90;99.90
1179;DHT22;578;48.408;10.004;2022-12-08T00:14:27;1.80;99.90
1179;DHT22;578;48.408;10.004;2022-12-08T00:16:54;1.80;99.90
1179;DHT22;578;48.408;10.004;2022-12-08T00:19:22;1.80;99.90
1179;DHT22;578;48.408;10.004;2022-12-08T00:21:49;1.70;99.90
1179;DHT22;578;48.408;10.004;2022-12-08T00:24:17;1.70;99.90
1179;DHT22;578;48.408;10.004;2022-12-08T00:26:44;1.70;99.90
1179;DHT22;578;48.408;10.004;2022-12-08T00:29:11;1.70;99.90
1179;DHT22;578;48.408;10.004;2022-12-08T00:31:39;1.70;99.90
1179;DHT22;578;48.408;10.004;2022-12-08T00:34:06;1.70;99.90
1179;DHT22;578;48.408;10.004;2022-12-08T00:36:33;1.70;99.90
1179;DHT22;578;48.408;10.004;2022-12-08T00:39:00;1.70;99.90
1179;DHT22;578;48.408;10.004;2022-12-08T00:41:27;1.70;99.90
1179;DHT22;578;48.408;10.004;2022-12-08T00:44:12;1.70;99.90
1179;DHT22;578;48.408;10.004;2022-12-08T00:46:41;1.60;99.90
1179;DHT22;578;48.408;10.004;2022-12-08T00:49:08;1.50;99.90
1179;DHT22;578;48.408;10.004;2022-12-08T00:51:35;1.60;99.90
1179;DHT22;578;48.408;10.004;2022-12-08T00:54:02;1.60;99.90
1179;DHT22;578;48.408;10.004;2022-12-08T00:56:29;1.70;99.90
1179;DHT22;578;48.408;10.004;2022-12-08T00:58:56;1.60;99.90
1179;DHT22;578;48.408;10.004;2022-12-08T01:01:23;1.60;99.90
1179;DHT22;578;48.408;10.004;2022-12-08T01:03:51;1.70;99.90
1179;DHT22;578;48.408;10.004;2022-12-08T01:06:18;1.70;99.90
1179;DHT22;578;48.408;10.004;2022-12-08T01:08:45;1.70;99.90
1179;DHT22;578;48.408;10.004;2022-12-08T01:11:16;1.60;99.90
1179;DHT22;578;48.408;10.004;2022-12-08T01:13:44;1.70;99.90
1179;DHT22;578;48.408;10.004;2022-12-08T01:16:19;1.70;99.90
1179;DHT22;578;48.408;10.004;2022-12-08T01:18:46;1.70;99.90
1179;DHT22;578;48.408;10.004;2022-12-08T01:21:14;1.70;99.90
1179;DHT22;578;48.408;10.004;2022-12-08T01:23:41;1.70;99.90
1179;DHT22;578;48.408;10.004;2022-12-08T01:26:10;1.80;99.90
1179;DHT22;578;48.408;10.004;2022-12-08T01:28:38;1.70;99.90
1179;DHT22;578;48.408;10.004;2022-12-08T01:31:10;1.80;99.90
1179;DHT22;578;48.408;10.004;2022-12-08T01:33:37;1.70;99.90
1179;DHT22;578;48.408;10.004;2022-12-08T01:36:05;1.70;99.90
1179;DHT22;578;48.408;10.004;2022-12-08T01:38:33;1.60;99.90
1179;DHT22;578;48.408;10.004;2022-12-08T01:41:00;1.50;99.90
1179;DHT22;578;48.408;10.004;2022-12-08T01:43:54;1.60;99.90
1179;DHT22;578;48.408;10.004;2022-12-08T01:46:21;1.50;99.90
1179;DHT22;578;48.408;10.004;2022-12-08T01:48:49;1.50;99.90
1179;DHT22;578;48.408;10.004;2022-12-08T01:51:17;1.50;99.90
1179;DHT22;578;48.408;10.004;2022-12-08T01:53:46;1.40;99.90
1179;DHT22;578;48.408;10.004;2022-12-08T01:56:17;1.30;99.90
1179;DHT22;578;48.408;10.004;2022-12-08T01:58:47;1.30;99.90
1179;DHT22;578;48.408;10.004;2022-12-08T02:01:15;1.20;99.90
1179;DHT22;578;48.408;10.004;2022-12-08T02:03:46;1.10;99.90
1179;DHT22;578;48.408;10.004;2022-12-08T02:06:14;1.00;99.90
1179;DHT22;578;48.408;10.004;2022-12-08T02:08:41;1.00;99.90
1179;DHT22;578;48.408;10.004;2022-12-08T02:11:11;0.90;99.90
1179;DHT22;578;48.408;10.004;2022-12-08T02:13:39;0.80;99.90
1179;DHT22;578;48.408;10.004;2022-12-08T02:16:11;0.80;99.90
1179;DHT22;578;48.408;10.004;2022-12-08T02:18:51;0.80;99.90
1179;DHT22;578;48.408;10.004;2022-12-08T02:21:25;0.70;99.90
1179;DHT22;578;48.408;10.004;2022-12-08T02:24:02;0.60;99.90
1179;DHT22;578;48.408;10.004;2022-12-08T02:27:10;0.60;99.90
1179;DHT22;578;48.408;10.004;2022-12-08T02:33:08;0.40;99.90
1179;DHT22;578;48.408;10.004;2022-12-08T02:35:55;0.40;99.90
1179;DHT22;578;48.408;10.004;2022-12-08T02:38:32;0.20;99.90
1179;DHT22;578;48.408;10.004;2022-12-08T02:41:08;0.20;99.90
1179;DHT22;578;48.408;10.004;2022-12-08T02:43:42;0.00;99.90
1179;DHT22;578;48.408;10.004;2022-12-08T02:46:12;-0.10;99.90
1179;DHT22;578;48.408;10.004;2022-12-08T02:48:41;-0.10;99.90
1179;DHT22;578;48.408;10.004;2022-12-08T02:51:10;-0.20;99.90
1179;DHT22;578;48.408;10.004;2022-12-08T02:53:36;-0.30;99.90
1179;DHT22;578;48.408;10.004;2022-12-08T02:56:10;-0.40;99.90
1179;DHT22;578;48.408;10.004;2022-12-08T02:59:08;-0.50;99.90
1179;DHT22;578;48.408;10.004;2022-12-08T03:01:57;-0.60;99.90
1179;DHT22;578;48.408;10.004;2022-12-08T03:04:33;-0.70;99.90
1179;DHT22;578;48.408;10.004;2022-12-08T03:07:07;-0.70;99.90
1179;DHT22;578;48.408;10.004;2022-12-08T03:09:40;-0.70;99.90
1179;DHT22;578;48.408;10.004;2022-12-08T03:12:12;-0.80;99.90
1179;DHT22;578;48.408;10.004;2022-12-08T03:14:44;-0.80;99.90
1179;DHT22;578;48.408;10.004;2022-12-08T03:17:14;-0.70;99.90
1179;DHT22;578;48.408;10.004;2022-12-08T03:19:43;-0.80;99.90
1179;DHT22;578;48.408;10.004;2022-12-08T03:22:14;-0.90;99.90
1179;DHT22;578;48.408;10.004;2022-12-08T03:24:44;-0.90;99.90
1179;DHT22;578;48.408;10.004;2022-12-08T03:27:14;-0.90;99.90
1179;DHT22;578;48.408;10.004;2022-12-08T03:29:44;-1.00;99.90
1179;DHT22;578;48.408;10.004;2022-12-08T03:32:18;-1.00;99.90
1179;DHT22;578;48.408;10.004;2022-12-08T03:34:48;-1.00;99.90
1179;DHT22;578;48.408;10.004;2022-12-08T03:37:17;-1.10;99.90
1179;DHT22;578;48.408;10.004;2022-12-08T03:39:44;-1.10;99.90
1179;DHT22;578;48.408;10.004;2022-12-08T03:42:11;-1.20;99.90
1179;DHT22;578;48.408;10.004;2022-12-08T03:44:37;-1.20;99.90
1179;DHT22;578;48.408;10.004;2022-12-08T03:47:04;-1.20;99.90
1179;DHT22;578;48.408;10.004;2022-12-08T03:49:31;-1.30;99.90
1179;DHT22;578;48.408;10.004;2022-12-08T03:51:58;-1.30;99.90
1179;DHT22;578;48.408;10.004;2022-12-08T03:54:26;-1.30;99.90
1179;DHT22;578;48.408;10.004;2022-12-08T03:56:53;-1.30;99.90
1179;DHT22;578;48.408;10.004;2022-12-08T03:59:19;-1.30;99.90
1179;DHT22;578;48.408;10.004;2022-12-08T04:01:46;-1.30;99.90
1179;DHT22;578;48.408;10.004;2022-12-08T04:04:13;-1.30;99.90
1179;DHT22;578;48.408;10.004;2022-12-08T04:06:40;-1.30;99.90
1179;DHT22;578;48.408;10.004;2022-12-08T04:09:06;-1.40;99.90
1179;DHT22;578;48.408;10.004;2022-12-08T04:11:34;-1.50;99.90
1179;DHT22;578;48.408;10.004;2022-12-08T04:14:01;-1.50;99.90
1179;DHT22;578;48.408;10.004;2022-12-08T04:16:28;-1.50;99.90
1179;DHT22;578;48.408;10.004;2022-12-08T04:18:54;-1.60;99.90
1179;DHT22;578;48.408;10.004;2022-12-08T04:21:21;-1.50;99.90
1179;DHT22;578;48.408;10.004;2022-12-08T04:23:48;-1.50;99.90
1179;DHT22;578;48.408;10.004;2022-12-08T04:26:15;-1.60;99.90
1179;DHT22;578;48.408;10.004;2022-12-08T04:28:43;-1.70;99.90
1179;DHT22;578;48.408;10.004;2022-12-08T04:31:10;-1.80;99.90
1179;DHT22;578;48.408;10.004;2022-12-08T04:33:37;-1.80;99.90
1179;DHT22;578;48.408;10.004;2022-12-08T04:36:05;-1.70;99.90
1179;DHT22;578;48.408;10.004;2022-12-08T04:38:33;-1.70;99.90
1179;DHT22;578;48.408;10.004;2022-12-08T04:41:00;-1.70;99.90
1179;DHT22;578;48.408;10.004;2022-12-08T04:43:27;-1.70;99.90
1179;DHT22;578;48.408;10.004;2022-12-08T04:45:55;-1.70;99.90
1179;DHT22;578;48.408;10.004;2022-12-08T04:48:22;-1.70;99.90
1179;DHT22;578;48.408;10.004;2022-12-08T04:50:48;-1.70;99.90
1179;DHT22;578;48.408;10.004;2022-12-08T04:53:16;-1.80;99.90
1179;DHT22;578;48.408;10.004;2022-12-08T04:55:44;-2.00;99.90
1179;DHT22;578;48.408;10.004;2022-12-08T04:58:14;-2.10;99.90
1179;DHT22;578;48.408;10.004;2022-12-08T05:00:41;-2.10;99.90
1179;DHT22;578;48.408;10.004;2022-12-08T05:03:10;-2.10;99.90
1179;DHT22;578;48.408;10.004;2022-12-08T05:05:37;-2.00;99.90
1179;DHT22;578;48.408;10.004;2022-12-08T05:08:04;-1.80;99.90
1179;DHT22;578;48.408;10.004;2022-12-08T05:10:31;-1.90;99.90
1179;DHT22;578;48.408;10.004;2022-12-08T05:12:58;-2.00;99.90
1179;DHT22;578;48.408;10.004;2022-12-08T05:15:25;-1.80;99.90
1179;DHT22;578;48.408;10.004;2022-12-08T05:17:52;-1.70;99.90
1179;DHT22;578;48.408;10.004;2022-12-08T05:20:20;-1.80;99.90
1179;DHT22;578;48.408;10.004;2022-12-08T05:22:46;-2.00;99.90
1179;DHT22;578;48.408;10.004;2022-12-08T05:25:14;-2.10;99.90
1179;DHT22;578;48.408;10.004;2022-12-08T05:27:40;-2.10;99.90
1179;DHT22;578;48.408;10.004;2022-12-08T05:30:07;-1.90;99.90
1179;DHT22;578;48.408;10.004;2022-12-08T05:32:34;-1.90;99.90
1179;DHT22;578;48.408;10.004;2022-12-08T05:35:01;-1.90;99.90
1179;DHT22;578;48.408;10.004;2022-12-08T05:37:29;-1.90;99.90
1179;DHT22;578;48.408;10.004;2022-12-08T05:39:56;-2.10;99.90
1179;DHT22;578;48.408;10.004;2022-12-08T05:42:22;-2.20;99.90
1179;DHT22;578;48.408;10.004;2022-12-08T05:44:49;-2.30;99.90
1179;DHT22;578;48.408;10.004;2022-12-08T05:47:16;-2.20;99.90
1179;DHT22;578;48.408;10.004;2022-12-08T05:49:43;-2.00;99.90
1179;DHT22;578;48.408;10.004;2022-12-08T05:52:09;-2.20;99.90
1179;DHT22;578;48.408;10.004;2022-12-08T05:54:37;-2.10;99.90
1179;DHT22;578;48.408;10.004;2022-12-08T05:57:04;-2.10;99.90
1179;DHT22;578;48.408;10.004;2022-12-08T05:59:31;-2.10;99.90
1179;DHT22;578;48.408;10.004;2022-12-08T06:01:58;-2.30;99.90
1179;DHT22;578;48.408;10.004;2022-12-08T06:04:24;-2.30;99.90
1179;DHT22;578;48.408;10.004;2022-12-08T06:06:51;-2.40;99.90
1179;DHT22;578;48.408;10.004;2022-12-08T06:09:18;-2.40;99.90
1179;DHT22;578;48.408;10.004;2022-12-08T06:11:46;-2.50;99.90
1179;DHT22;578;48.408;10.004;2022-12-08T06:14:13;-2.50;99.90
1179;DHT22;578;48.408;10.004;2022-12-08T06:16:40;-2.40;99.90
1179;DHT22;578;48.408;10.004;2022-12-08T06:19:06;-2.30;99.90
1179;DHT22;578;48.408;10.004;2022-12-08T06:21:33;-2.30;99.90
1179;DHT22;578;48.408;10.004;2022-12-08T06:24:00;-2.40;99.90
1179;DHT22;578;48.408;10.004;2022-12-08T06:26:27;-2.50;99.90
1179;DHT22;578;48.408;10.004;2022-12-08T06:28:55;-2.30;99.90
1179;DHT22;578;48.408;10.004;2022-12-08T06:31:23;-2.50;99.90
1179;DHT22;578;48.408;10.004;2022-12-08T06:33:51;-2.60;99.90
1179;DHT22;578;48.408;10.004;2022-12-08T06:36:21;-2.50;99.90
1179;DHT22;578;48.408;10.004;2022-12-08T06:38:48;-2.50;99.90
1179;DHT22;578;48.408;10.004;2022-12-08T06:41:14;-2.40;99.90
1179;DHT22;578;48.408;10.004;2022-12-08T06:43:41;-2.50;99.90
1179;DHT22;578;48.408;10.004;2022-12-08T06:46:12;-2.50;99.90
1179;DHT22;578;48.408;10.004;2022-12-08T06:48:39;-2.60;99.90
1179;DHT22;578;48.408;10.004;2022-12-08T06:51:07;-2.70;99.90
1179;DHT22;578;48.408;10.004;2022-12-08T06:53:34;-2.90;99.90
1179;DHT22;578;48.408;10.004;2022-12-08T06:56:01;-2.90;99.90
1179;DHT22;578;48.408;10.004;2022-12-08T06:58:28;-2.80;99.90
1179;DHT22;578;48.408;10.004;2022-12-08T07:00:54;-2.90;99.90
1179;DHT22;578;48.408;10.004;2022-12-08T07:03:22;-3.00;99.90
1179;DHT22;578;48.408;10.004;2022-12-08T07:05:49;-3.00;99.90
1179;DHT22;578;48.408;10.004;2022-12-08T07:08:20;-3.00;99.90
1179;DHT22;578;48.408;10.004;2022-12-08T07:10:47;-3.00;99.90
1179;DHT22;578;48.408;10.004;2022-12-08T07:13:14;-2.70;99.90
1179;DHT22;578;48.408;10.004;2022-12-08T07:15:41;-2.60;99.90
1179;DHT22;578;48.408;10.004;2022-12-08T07:18:07;-2.70;99.90
1179;DHT22;578;48.408;10.004;2022-12-08T07:20:36;-2.70;99.90
1179;DHT22;578;48.408;10.004;2022-12-08T07:23:02;-2.80;99.90
1179;DHT22;578;48.408;10.004;2022-12-08T07:25:29;-2.60;99.90
1179;DHT22;578;48.408;10.004;2022-12-08T07:27:56;-2.70;99.90
1179;DHT22;578;48.408;10.004;2022-12-08T07:30:34;-2.50;99.90
1179;DHT22;578;48.408;10.004;2022-12-08T07:33:06;-2.40;99.90
1179;DHT22;578;48.408;10.004;2022-12-08T07:35:34;-2.50;99.90
1179;DHT22;578;48.408;10.004;2022-12-08T07:38:01;-2.50;99.90
1179;DHT22;578;48.408;10.004;2022-12-08T07:40:28;-2.50;99.90
1179;DHT22;578;48.408;10.004;2022-12-08T07:42:55;-2.50;99.90
1179;DHT22;578;48.408;10.004;2022-12-08T07:45:21;-2.50;99.90
1179;DHT22;578;48.408;10.004;2022-12-08T07:47:48;-2.50;99.90
1179;DHT22;578;48.408;10.004;2022-12-08T07:50:15;-1.70;99.90
1179;DHT22;578;48.408;10.004;2022-12-08T07:52:43;-1.10;99.90
1179;DHT22;578;48.408;10.004;2022-12-08T07:55:10;-0.70;99.90
1179;DHT22;578;48.408;10.004;2022-12-08T07:57:36;-0.50;99.90
1179;DHT22;578;48.408;10.004;2022-12-08T08:00:04;-0.30;99.90
1179;DHT22;578;48.408;10.004;2022-12-08T08:02:31;-0.80;99.90
1179;DHT22;578;48.408;10.004;2022-12-08T08:04:57;0.30;99.90
1179;DHT22;578;48.408;10.004;2022-12-08T08:07:24;0.80;99.90
1179;DHT22;578;48.408;10.004;2022-12-08T08:09:52;1.20;99.90
1179;DHT22;578;48.408;10.004;2022-12-08T08:12:19;0.50;99.90
1179;DHT22;578;48.408;10.004;2022-12-08T08:14:46;-0.30;99.90
1179;DHT22;578;48.408;10.004;2022-12-08T08:17:13;-0.60;99.90
1179;DHT22;578;48.408;10.004;2022-12-08T08:19:39;-0.90;99.90
1179;DHT22;578;48.408;10.004;2022-12-08T08:22:06;-0.90;99.90
1179;DHT22;578;48.408;10.004;2022-12-08T08:24:33;-1.00;99.90
1179;DHT22;578;48.408;10.004;2022-12-08T08:27:01;-0.90;99.90
1179;DHT22;578;48.408;10.004;2022-12-08T08:29:28;-0.70;99.90
1179;DHT22;578;48.408;10.004;2022-12-08T08:31:55;-0.60;99.90
1179;DHT22;578;48.408;10.004;2022-12-08T08:34:21;-0.60;99.90
1179;DHT22;578;48.408;10.004;2022-12-08T08:36:48;-0.50;99.90
1179;DHT22;578;48.408;10.004;2022-12-08T08:39:15;-0.40;99.90
1179;DHT22;578;48.408;10.004;2022-12-08T08:41:42;-0.40;99.90
1179;DHT22;578;48.408;10.004;2022-12-08T08:44:12;-0.40;99.90
1179;DHT22;578;48.408;10.004;2022-12-08T08:46:39;-0.50;99.90
1179;DHT22;578;48.408;10.004;2022-12-08T08:49:06;-0.50;99.90
1179;DHT22;578;48.408;10.004;2022-12-08T08:51:32;-0.40;99.90
1179;DHT22;578;48.408;10.004;2022-12-08T08:53:59;-0.50;99.90
1179;DHT22;578;48.408;10.004;2022-12-08T08:56:26;-0.50;99.90
1179;DHT22;578;48.408;10.004;2022-12-08T08:58:53;-0.50;99.90
1179;DHT22;578;48.408;10.004;2022-12-08T09:01:23;-0.50;99.90
1179;DHT22;578;48.408;10.004;2022-12-08T09:03:50;-0.50;99.90
1179;DHT22;578;48.408;10.004;2022-12-08T09:06:17;-0.50;99.90
1179;DHT22;578;48.408;10.004;2022-12-08T09:08:45;-0.30;99.90
1179;DHT22;578;48.408;10.004;2022-12-08T09:11:12;-0.20;99.90
1179;DHT22;578;48.408;10.004;2022-12-08T09:13:40;-0.30;99.90
1179;DHT22;578;48.408;10.004;2022-12-08T09:16:07;-0.30;99.90
1179;DHT22;578;48.408;10.004;2022-12-08T09:18:36;-0.30;99.90
1179;DHT22;578;48.408;10.004;2022-12-08T09:21:04;-0.30;99.90
1179;DHT22;578;48.408;10.004;2022-12-08T09:23:30;-0.20;99.90
1179;DHT22;578;48.408;10.004;2022-12-08T09:25:57;-0.10;99.90
1179;DHT22;578;48.408;10.004;2022-12-08T09:28:24;0.00;99.90
1179;DHT22;578;48.408;10.004;2022-12-08T09:30:51;0.20;99.90
1179;DHT22;578;48.408;10.004;2022-12-08T09:33:17;0.20;99.90
1179;DHT22;578;48.408;10.004;2022-12-08T09:35:45;0.30;99.90
1179;DHT22;578;48.408;10.004;2022-12-08T09:38:12;0.40;99.90
1179;DHT22;578;48.408;10.004;2022-12-08T09:40:44;0.30;99.90
1179;DHT22;578;48.408;10.004;2022-12-08T09:43:23;0.30;99.90
1179;DHT22;578;48.408;10.004;2022-12-08T09:45:54;0.40;99.90
1179;DHT22;578;48.408;10.004;2022-12-08T09:48:23;0.40;99.90
1179;DHT22;578;48.408;10.004;2022-12-08T09:50:54;0.40;99.90
1179;DHT22;578;48.408;10.004;2022-12-08T09:53:24;0.40;99.90
1179;DHT22;578;48.408;10.004;2022-12-08T09:55:55;0.50;99.90
1179;DHT22;578;48.408;10.004;2022-12-08T09:58:26;0.60;99.90
1179;DHT22;578;48.408;10.004;2022-12-08T10:00:55;0.40;99.90
1179;DHT22;578;48.408;10.004;2022-12-08T10:03:26;0.50;99.90
1179;DHT22;578;48.408;10.004;2022-12-08T10:05:59;0.60;99.90
1179;DHT22;578;48.408;10.004;2022-12-08T10:08:35;0.70;99.90
1179;DHT22;578;48.408;10.004;2022-12-08T10:11:10;0.60;99.90
1179;DHT22;578;48.408;10.004;2022-12-08T10:13:45;0.80;99.90
1179;DHT22;578;48.408;10.004;2022-12-08T10:16:23;0.70;99.90
1179;DHT22;578;48.408;10.004;2022-12-08T10:18:59;0.90;99.90
1179;DHT22;578;48.408;10.004;2022-12-08T10:21:29;1.10;99.90
1179;DHT22;578;48.408;10.004;2022-12-08T10:24:02;0.80;99.90
1179;DHT22;578;48.408;10.004;2022-12-08T10:26:29;0.60;99.90
1179;DHT22;578;48.408;10.004;2022-12-08T10:28:57;0.70;99.90
1179;DHT22;578;48.408;10.004;2022-12-08T10:31:26;1.00;99.90
1179;DHT22;578;48.408;10.004;2022-12-08T10:33:56;1.00;99.90
1179;DHT22;578;48.408;10.004;2022-12-08T10:36:44;1.00;99.90
1179;DHT22;578;48.408;10.004;2022-12-08T10:39:29;1.00;99.90
1179;DHT22;578;48.408;10.004;2022-12-08T10:42:00;1.20;99.90
1179;DHT22;578;48.408;10.004;2022-12-08T10:44:28;1.20;99.90
1179;DHT22;578;48.408;10.004;2022-12-08T10:46:55;1.10;99.90
1179;DHT22;578;48.408;10.004;2022-12-08T10:49:25;1.30;99.90
1179;DHT22;578;48.408;10.004;2022-12-08T10:51:54;1.40;99.90
1179;DHT22;578;48.408;10.004;2022-12-08T10:54:26;1.40;99.90
1179;DHT22;578;48.408;10.004;2022-12-08T10:56:54;1.30;99.90
1179;DHT22;578;48.408;10.004;2022-12-08T10:59:22;1.10;99.90
1179;DHT22;578;48.408;10.004;2022-12-08T11:01:51;1.30;99.90
1179;DHT22;578;48.408;10.004;2022-12-08T11:04:19;1.20;99.90
1179;DHT22;578;48.408;10.004;2022-12-08T11:06:48;1.30;99.90
1179;DHT22;578;48.408;10.004;2022-12-08T11:09:34;1.20;99.90
1179;DHT22;578;48.408;10.004;2022-12-08T11:12:06;1.20;99.90
1179;DHT22;578;48.408;10.004;2022-12-08T11:14:44;1.30;99.90
1179;DHT22;578;48.408;10.004;2022-12-08T11:17:14;1.00;99.90
1179;DHT22;578;48.408;10.004;2022-12-08T11:19:43;1.10;99.90
1179;DHT22;578;48.408;10.004;2022-12-08T11:22:21;1.30;99.90
1179;DHT22;578;48.408;10.004;2022-12-08T11:24:59;1.50;99.90
1179;DHT22;578;48.408;10.004;2022-12-08T11:27:26;1.60;99.90
1179;DHT22;578;48.408;10.004;2022-12-08T11:29:52;1.60;99.90
1179;DHT22;578;48.408;10.004;2022-12-08T11:32:20;1.50;99.90
1179;DHT22;578;48.408;10.004;2022-12-08T11:34:50;1.50;99.90
1179;DHT22;578;48.408;10.004;2022-12-08T11:37:21;1.50;99.90
1179;DHT22;578;48.408;10.004;2022-12-08T11:39:51;1.40;99.90
1179;DHT22;578;48.408;10.004;2022-12-08T11:42:24;1.50;99.90
1179;DHT22;578;48.408;10.004;2022-12-08T11:44:56;1.30;99.90
1179;DHT22;578;48.408;10.004;2022-12-08T11:47:25;1.40;99.90
1179;DHT22;578;48.408;10.004;2022-12-08T11:50:00;1.50;99.90
1179;DHT22;578;48.408;10.004;2022-12-08T11:52:31;1.50;99.90
1179;DHT22;578;48.408;10.004;2022-12-08T11:55:04;1.60;99.90
1179;DHT22;578;48.408;10.004;2022-12-08T11:57:35;1.60;99.90
1179;DHT22;578;48.408;10.004;2022-12-08T12:00:08;1.50;99.90
1179;DHT22;578;48.408;10.004;2022-12-08T12:02:37;1.60;99.90
1179;DHT22;578;48.408;10.004;2022-12-08T12:05:15;1.80;99.90
1179;DHT22;578;48.408;10.004;2022-12-08T12:07:57;1.70;99.90
1179;DHT22;578;48.408;10.004;2022-12-08T12:10:47;1.80;99.90
1179;DHT22;578;48.408;10.004;2022-12-08T12:13:35;1.80;99.90
1179;DHT22;578;48.408;10.004;2022-12-08T12:19:16;1.80;99.90
1179;DHT22;578;48.408;10.004;2022-12-08T12:21:47;1.80;99.90
1179;DHT22;578;48.408;10.004;2022-12-08T12:24:17;1.90;99.90
1179;DHT22;578;48.408;10.004;2022-12-08T12:26:56;1.90;99.90
1179;DHT22;578;48.408;10.004;2022-12-08T12:29:26;1.90;99.90
1179;DHT22;578;48.408;10.004;2022-12-08T12:31:56;1.70;99.90
1179;DHT22;578;48.408;10.004;2022-12-08T12:34:26;1.80;99.90
1179;DHT22;578;48.408;10.004;2022-12-08T12:36:55;1.90;99.90
1179;DHT22;578;48.408;10.004;2022-12-08T12:39:25;1.80;99.90
1179;DHT22;578;48.408;10.004;2022-12-08T12:41:54;1.90;99.90
1179;DHT22;578;48.408;10.004;2022-12-08T12:44:37;1.90;99.90
1179;DHT22;578;48.408;10.004;2022-12-08T12:47:09;1.80;99.90
1179;DHT22;578;48.408;10.004;2022-12-08T12:52:44;1.90;99.90
1179;DHT22;578;48.408;10.004;2022-12-08T12:58:37;2.00;99.90
1179;DHT22;578;48.408;10.004;2022-12-08T13:01:43;2.00;99.90
1179;DHT22;578;48.408;10.004;2022-12-08T13:04:12;2.00;99.90
1179;DHT22;578;48.408;10.004;2022-12-08T13:06:42;1.90;99.90
1179;DHT22;578;48.408;10.004;2022-12-08T13:09:26;1.90;99.90
1179;DHT22;578;48.408;10.004;2022-12-08T13:11:56;2.00;99.90
1179;DHT22;578;48.408;10.004;2022-12-08T13:14:32;2.20;99.90
1179;DHT22;578;48.408;10.004;2022-12-08T13:17:06;2.30;99.90
1179;DHT22;578;48.408;10.004;2022-12-08T13:19:35;2.30;99.90
1179;DHT22;578;48.408;10.004;2022-12-08T13:25:44;2.00;99.90
1179;DHT22;578;48.408;10.004;2022-12-08T13:28:17;1.90;99.90
1179;DHT22;578;48.408;10.004;2022-12-08T13:30:46;2.00;99.90
1179;DHT22;578;48.408;10.004;2022-12-08T13:33:22;2.10;99.90
1179;DHT22;578;48.408;10.004;2022-12-08T13:36:02;2.10;99.90
1179;DHT22;578;48.408;10.004;2022-12-08T13:38:31;2.20;99.90
1179;DHT22;578;48.408;10.004;2022-12-08T13:41:02;2.00;99.90
1179;DHT22;578;48.408;10.004;2022-12-08T13:43:36;2.00;99.90
1179;DHT22;578;48.408;10.004;2022-12-08T13:46:05;2.00;99.90
1179;DHT22;578;48.408;10.004;2022-12-08T13:48:46;2.00;99.90
1179;DHT22;578;48.408;10.004;2022-12-08T13:51:17;2.00;99.90
1179;DHT22;578;48.408;10.004;2022-12-08T13:53:55;1.90;99.90
1179;DHT22;578;48.408;10.004;2022-12-08T13:56:22;2.00;99.90
1179;DHT22;578;48.408;10.004;2022-12-08T13:58:49;2.10;99.90
1179;DHT22;578;48.408;10.004;2022-12-08T14:01:19;2.00;99.90
1179;DHT22;578;48.408;10.004;2022-12-08T14:03:49;1.90;99.90
1179;DHT22;578;48.408;10.004;2022-12-08T14:06:19;2.00;99.90
1179;DHT22;578;48.408;10.004;2022-12-08T14:08:51;1.90;99.90
1179;DHT22;578;48.408;10.004;2022-12-08T14:11:24;2.00;99.90
1179;DHT22;578;48.408;10.004;2022-12-08T14:14:00;2.00;99.90
1179;DHT22;578;48.408;10.004;2022-12-08T14:16:28;1.80;99.90
1179;DHT22;578;48.408;10.004;2022-12-08T14:19:05;1.90;99.90
1179;DHT22;578;48.408;10.004;2022-12-08T14:21:32;1.90;99.90
1179;DHT22;578;48.408;10.004;2022-12-08T14:24:01;1.90;99.90
1179;DHT22;578;48.408;10.004;2022-12-08T14:26:31;1.90;99.90
1179;DHT22;578;48.408;10.004;2022-12-08T14:28:59;1.80;99.90
1179;DHT22;578;48.408;10.004;2022-12-08T14:31:27;1.80;99.90
1179;DHT22;578;48.408;10.004;2022-12-08T14:33:54;1.90;99.90
1179;DHT22;578;48.408;10.004;2022-12-08T14:36:23;1.80;99.90
1179;DHT22;578;48.408;10.004;2022-12-08T14:38:51;1.80;99.90
1179;DHT22;578;48.408;10.004;2022-12-08T14:41:25;1.70;99.90
1179;DHT22;578;48.408;10.004;2022-12-08T14:44:00;1.70;99.90
1179;DHT22;578;48.408;10.004;2022-12-08T14:46:27;1.70;99.90
1179;DHT22;578;48.408;10.004;2022-12-08T14:48:54;1.80;99.90
1179;DHT22;578;48.408;10.004;2022-12-08T14:51:27;1.70;99.90
1179;DHT22;578;48.408;10.004;2022-12-08T14:53:58;1.70;99.90
1179;DHT22;578;48.408;10.004;2022-12-08T14:56:28;1.70;99.90
1179;DHT22;578;48.408;10.004;2022-12-08T14:59:05;1.70;99.90
1179;DHT22;578;48.408;10.004;2022-12-08T15:01:33;1.70;99.90
1179;DHT22;578;48.408;10.004;2022-12-08T15:04:05;1.70;99.90
1179;DHT22;578;48.408;10.004;2022-12-08T15:06:34;1.60;99.90
1179;DHT22;578;48.408;10.004;2022-12-08T15:09:16;1.60;99.90
1179;DHT22;578;48.408;10.004;2022-12-08T15:11:43;1.60;99.90
1179;DHT22;578;48.408;10.004;2022-12-08T15:14:30;1.60;99.90
1179;DHT22;578;48.408;10.004;2022-12-08T15:16:57;1.50;99.90
1179;DHT22;578;48.408;10.004;2022-12-08T15:19:27;1.50;99.90
1179;DHT22;578;48.408;10.004;2022-12-08T15:21:57;1.50;99.90
1179;DHT22;578;48.408;10.004;2022-12-08T15:24:26;1.50;99.90
1179;DHT22;578;48.408;10.004;2022-12-08T15:26:55;1.50;99.90
1179;DHT22;578;48.408;10.004;2022-12-08T15:29:24;1.40;99.90
1179;DHT22;578;48.408;10.004;2022-12-08T15:31:53;1.40;99.90
1179;DHT22;578;48.408;10.004;2022-12-08T15:34:20;1.40;99.90
1179;DHT22;578;48.408;10.004;2022-12-08T15:36:49;1.40;99.90
1179;DHT22;578;48.408;10.004;2022-12-08T15:39:25;1.40;99.90
1179;DHT22;578;48.408;10.004;2022-12-08T15:41:53;1.40;99.90
1179;DHT22;578;48.408;10.004;2022-12-08T15:44:20;1.40;99.90
1179;DHT22;578;48.408;10.004;2022-12-08T15:46:47;1.30;99.90
1179;DHT22;578;48.408;10.004;2022-12-08T15:49:16;1.30;99.90
1179;DHT22;578;48.408;10.004;2022-12-08T15:51:43;1.30;99.90
1179;DHT22;578;48.408;10.004;2022-12-08T15:54:10;1.30;99.90
1179;DHT22;578;48.408;10.004;2022-12-08T15:56:41;1.40;99.90
1179;DHT22;578;48.408;10.004;2022-12-08T15:59:13;1.40;99.90
1179;DHT22;578;48.408;10.004;2022-12-08T16:01:41;1.30;99.90
1179;DHT22;578;48.408;10.004;2022-12-08T16:04:11;1.30;99.90
1179;DHT22;578;48.408;10.004;2022-12-08T16:06:39;1.20;99.90
1179;DHT22;578;48.408;10.004;2022-12-08T16:09:13;1.20;99.90
1179;DHT22;578;48.408;10.004;2022-12-08T16:11:42;1.10;99.90
1179;DHT22;578;48.408;10.004;2022-12-08T16:14:26;1.20;99.90
1179;DHT22;578;48.408;10.004;2022-12-08T16:16:53;1.20;99.90
1179;DHT22;578;48.408;10.004;2022-12-08T16:19:20;1.00;99.90
1179;DHT22;578;48.408;10.004;2022-12-08T16:21:46;1.00;99.90
1179;DHT22;578;48.408;10.004;2022-12-08T16:24:13;1.00;99.90
1179;DHT22;578;48.408;10.004;2022-12-08T16:26:41;1.10;99.90
1179;DHT22;578;48.408;10.004;2022-12-08T16:29:16;1.10;99.90
1179;DHT22;578;48.408;10.004;2022-12-08T16:31:43;0.90;99.90
1179;DHT22;578;48.408;10.004;2022-12-08T16:34:10;0.90;99.90
1179;DHT22;578;48.408;10.004;2022-12-08T16:36:37;0.90;99.90
1179;DHT22;578;48.408;10.004;2022-12-08T16:39:03;1.00;99.90
1179;DHT22;578;48.408;10.004;2022-12-08T16:41:30;0.90;99.90
1179;DHT22;578;48.408;10.004;2022-12-08T16:44:16;1.00;99.90
1179;DHT22;578;48.408;10.004;2022-12-08T16:46:43;1.10;99.90